Time;durP1;ratioP1;P1;durP2;ratioP2;P2;SDS_P1;SDS_P2;PMS_P1;PMS_P2;Temp;Humidity;BMP_temperature;BMP_pressure;BME280_temperature;BME280_humidity;BME280_pressure;Samples;Min_cycle;Max_cycle;Signal;HPM_P1;HPM_P2
2023/11/30 00:01:53;;;;;;;;;;;;;;;2.37;100.00;100221.25;5057514;28;19913;-83
2023/11/30 00:04:18;;;;;;;;;;;;;;;2.35;100.00;100220.53;5058074;28;19932;-83
2023/11/30 00:06:43;;;;;;;;;;;;;;;2.30;100.00;100221.97;5058009;28;19913;-82
2023/11/30 00:09:08;;;;;;;;;;;;;;;2.28;100.00;100222.09;5057607;28;19996;-82
2023/11/30 00:11:34;;;;;;;;;;;;;;;2.28;100.00;100222.09;5075142;28;19927;-81
2023/11/30 00:13:59;;;;;;;;;;;;;;;2.28;100.00;100216.78;5075897;28;19916;-81
2023/11/30 00:16:24;;;;;;;;;;;;;;;2.34;100.00;100218.00;5058208;28;19920;-83
2023/11/30 00:18:49;;;;;;;;;;;;;;;2.25;100.00;100211.75;5057523;28;19917;-83
2023/11/30 00:21:14;;;;;;;;;;;;;;;2.22;100.00;100214.72;5057621;28;19952;-83
2023/11/30 00:23:40;;;;;;;;;;;;;;;2.22;100.00;100212.06;5057148;28;19916;-83
2023/11/30 00:26:05;;;;;;;;;;;;;;;2.19;100.00;100212.34;5064375;28;19912;-82
2023/11/30 00:28:30;;;;;;;;;;;;;;;2.18;100.00;100208.81;5064385;28;19912;-82
2023/11/30 00:30:55;;;;;;;;;;;;;;;2.19;100.00;100207.03;5064242;28;20431;-82
2023/11/30 00:33:21;;;;;;;;;;;;;;;2.19;100.00;100207.03;5064570;28;19925;-83
2023/11/30 00:35:46;;;;;;;;;;;;;;;2.17;100.00;100209.00;5064091;28;19923;-82
2023/11/30 00:38:11;;;;;;;;;;;;;;;2.16;100.00;100204.66;5063465;28;19916;-83
2023/11/30 00:40:39;;;;;;;;;;;;;;;2.14;100.00;100203.97;5064117;28;19916;-83
2023/11/30 00:43:05;;;;;;;;;;;;;;;2.14;100.00;100203.97;5045617;28;19948;-82
2023/11/30 00:45:30;;;;;;;;;;;;;;;2.17;100.00;100193.06;5064557;28;19916;-83
2023/11/30 00:47:55;;;;;;;;;;;;;;;2.17;100.00;100187.75;5065134;28;19928;-82
2023/11/30 00:50:21;;;;;;;;;;;;;;;2.30;100.00;100184.78;5068144;28;20019;-83
2023/11/30 00:52:46;;;;;;;;;;;;;;;2.29;100.00;100194.56;5070333;28;19920;-83
2023/11/30 00:55:11;;;;;;;;;;;;;;;2.29;100.00;100189.25;5067231;28;20007;-84
2023/11/30 00:57:37;;;;;;;;;;;;;;;2.26;100.00;100181.56;5067627;28;19916;-83
2023/11/30 01:00:04;;;;;;;;;;;;;;;2.25;100.00;100179.06;5064260;28;19986;-82
2023/11/30 01:02:29;;;;;;;;;;;;;;;2.22;100.00;100169.56;5063294;28;19917;-84
2023/11/30 01:04:54;;;;;;;;;;;;;;;2.23;100.00;100175.72;5063843;28;19919;-83
2023/11/30 01:07:19;;;;;;;;;;;;;;;2.33;100.00;100179.19;5064023;28;19913;-82
2023/11/30 01:09:45;;;;;;;;;;;;;;;2.35;100.00;100174.56;5063573;28;19919;-83
2023/11/30 01:12:10;;;;;;;;;;;;;;;2.31;100.00;100178.47;5064513;28;19955;-83
2023/11/30 01:14:35;;;;;;;;;;;;;;;2.26;100.00;100178.91;5064672;28;19913;-82
2023/11/30 01:17:00;;;;;;;;;;;;;;;2.22;100.00;100168.75;5066485;28;19913;-79
2023/11/30 01:19:25;;;;;;;;;;;;;;;2.18;100.00;100176.13;5074865;28;19917;-83
2023/11/30 01:21:51;;;;;;;;;;;;;;;2.16;100.00;100172.81;5075768;28;19913;-82
2023/11/30 01:24:16;;;;;;;;;;;;;;;2.20;100.00;100163.56;5075271;28;19900;-82
2023/11/30 01:26:41;;;;;;;;;;;;;;;2.18;100.00;100166.34;5075238;28;19920;-83
2023/11/30 01:29:06;;;;;;;;;;;;;;;2.13;100.00;100159.81;5074489;28;19931;-83
2023/11/30 01:31:32;;;;;;;;;;;;;;;2.09;100.00;100163.75;5064311;28;19955;-83
2023/11/30 01:33:57;;;;;;;;;;;;;;;2.05;100.00;100167.66;5063849;28;19916;-84
2023/11/30 01:36:22;;;;;;;;;;;;;;;2.01;100.00;100168.94;5063491;28;19953;-85
2023/11/30 01:38:48;;;;;;;;;;;;;;;1.95;100.00;100168.53;5046716;28;19913;-83
2023/11/30 01:41:13;;;;;;;;;;;;;;;1.89;100.00;100169.06;5065133;28;19975;-83
2023/11/30 01:43:38;;;;;;;;;;;;;;;1.83;100.00;100161.69;5065184;28;19986;-82
2023/11/30 01:46:03;;;;;;;;;;;;;;;1.78;100.00;100155.97;5066232;28;19913;-83
2023/11/30 01:48:29;;;;;;;;;;;;;;;1.72;100.00;100157.38;5067187;28;20319;-80
2023/11/30 01:50:54;;;;;;;;;;;;;;;1.69;100.00;100154.19;5070911;28;19958;-82
2023/11/30 01:53:19;;;;;;;;;;;;;;;1.65;100.00;100155.44;5055405;28;19985;-82
2023/11/30 01:55:44;;;;;;;;;;;;;;;1.60;100.00;100157.66;5073231;28;19916;-81
2023/11/30 01:58:09;;;;;;;;;;;;;;;1.60;100.00;100160.31;5075777;28;19908;-82
2023/11/30 02:00:35;;;;;;;;;;;;;;;1.60;100.00;100155.84;5074866;28;19915;-79
2023/11/30 02:03:00;;;;;;;;;;;;;;;1.63;100.00;100149.44;5054377;28;19917;-81
2023/11/30 02:05:25;;;;;;;;;;;;;;;1.63;100.00;100146.78;5044901;28;19917;-81
2023/11/30 02:07:50;;;;;;;;;;;;;;;1.65;100.00;100155.44;5059451;28;19962;-82
2023/11/30 02:10:16;;;;;;;;;;;;;;;1.61;100.00;100165.50;5061262;28;19920;-82
2023/11/30 02:12:41;;;;;;;;;;;;;;;1.59;100.00;100156.00;5059454;28;19913;-82
2023/11/30 02:15:06;;;;;;;;;;;;;;;1.58;100.00;100152.53;5063551;28;19919;-83
2023/11/30 02:17:32;;;;;;;;;;;;;;;1.57;100.00;100147.34;5064554;28;19913;-82
2023/11/30 02:19:57;;;;;;;;;;;;;;;1.58;100.00;100154.31;5072603;28;19907;-82
2023/11/30 02:22:22;;;;;;;;;;;;;;;1.58;100.00;100159.63;5073621;28;19959;-83
2023/11/30 02:24:47;;;;;;;;;;;;;;;1.60;100.00;100157.66;5073028;28;19913;-83
2023/11/30 02:27:12;;;;;;;;;;;;;;;1.64;100.00;100153.78;5066754;28;19949;-83
2023/11/30 02:29:38;;;;;;;;;;;;;;;1.60;100.00;100142.59;5068544;28;19971;-83
2023/11/30 02:32:03;;;;;;;;;;;;;;;1.49;100.00;100142.75;5057470;28;19905;-81
2023/11/30 02:34:28;;;;;;;;;;;;;;;1.44;100.00;100142.31;5057614;28;19901;-81
2023/11/30 02:36:54;;;;;;;;;;;;;;;1.43;100.00;100141.50;5073355;28;19924;-82
2023/11/30 02:39:19;;;;;;;;;;;;;;;1.38;100.00;100143.72;5073576;28;19913;-83
2023/11/30 02:41:44;;;;;;;;;;;;;;;1.37;100.00;100142.06;5061848;28;19976;-82
2023/11/30 02:44:09;;;;;;;;;;;;;;;1.28;100.00;100142.88;5061617;28;19917;-83
2023/11/30 02:46:34;;;;;;;;;;;;;;;1.25;100.00;100138.69;5060473;28;19939;-82
2023/11/30 02:49:00;;;;;;;;;;;;;;;1.21;100.00;100132.03;5064415;28;19934;-83
2023/11/30 02:51:25;;;;;;;;;;;;;;;1.31;100.00;100137.31;5065302;28;20348;-83
2023/11/30 02:53:50;;;;;;;;;;;;;;;1.39;100.00;100145.41;5065431;28;19923;-83
2023/11/30 02:56:15;;;;;;;;;;;;;;;1.42;100.00;100139.84;5066430;28;20287;-82
2023/11/30 02:58:41;;;;;;;;;;;;;;;1.41;100.00;100139.97;5067406;28;20008;-82
2023/11/30 03:01:06;;;;;;;;;;;;;;;1.41;100.00;100138.16;5067678;28;19917;-83
2023/11/30 03:03:31;;;;;;;;;;;;;;;1.43;100.00;100133.53;5067972;28;19927;-82
2023/11/30 03:05:56;;;;;;;;;;;;;;;1.43;100.00;100130.91;5067190;28;19917;-83
2023/11/30 03:08:22;;;;;;;;;;;;;;;1.39;100.00;100139.25;5066407;28;19958;-83
2023/11/30 03:10:47;;;;;;;;;;;;;;;1.39;100.00;100134.78;5067409;28;19912;-82
2023/11/30 03:13:12;;;;;;;;;;;;;;;1.39;100.00;100133.97;5067392;28;19928;-83
2023/11/30 03:15:44;;;;;;;;;;;;;;;1.42;100.00;100136.31;5066917;28;19916;-83
2023/11/30 03:18:09;;;;;;;;;;;;;;;1.45;100.00;100130.72;5066478;28;19950;-83
2023/11/30 03:20:35;;;;;;;;;;;;;;;1.47;100.00;100134.91;5066944;28;19913;-83
2023/11/30 03:23:01;;;;;;;;;;;;;;;1.49;100.00;100122.38;5067683;28;19912;-84
2023/11/30 03:25:26;;;;;;;;;;;;;;;1.50;100.00;100132.00;5066455;28;19920;-82
2023/11/30 03:27:51;;;;;;;;;;;;;;;1.56;100.00;100140.38;5066509;28;20383;-84
2023/11/30 03:30:16;;;;;;;;;;;;;;;1.58;100.00;100130.44;5066406;28;20371;-85
2023/11/30 03:32:42;;;;;;;;;;;;;;;1.57;100.00;100128.78;5066071;28;19916;-84
2023/11/30 03:35:07;;;;;;;;;;;;;;;1.52;100.00;100135.34;5078882;28;19928;-81
2023/11/30 03:37:32;;;;;;;;;;;;;;;1.47;100.00;100126.97;5076544;28;20294;-83
2023/11/30 03:39:57;;;;;;;;;;;;;;;1.44;100.00;100137.84;5077814;28;19901;-82
2023/11/30 03:42:22;;;;;;;;;;;;;;;1.45;100.00;100138.69;5077173;28;19924;-80
2023/11/30 03:44:48;;;;;;;;;;;;;;;1.44;100.00;100137.84;5076726;28;19901;-81
2023/11/30 03:47:13;;;;;;;;;;;;;;;1.56;100.00;100133.25;5055411;28;19956;-84
2023/11/30 03:49:38;;;;;;;;;;;;;;;1.62;100.00;100140.63;5065799;28;19928;-83
2023/11/30 03:52:03;;;;;;;;;;;;;;;1.57;100.00;100131.44;5064189;28;19924;-82
2023/11/30 03:54:29;;;;;;;;;;;;;;;1.51;100.00;100131.03;5064262;28;19912;-83
2023/11/30 03:56:54;;;;;;;;;;;;;;;1.46;100.00;100130.59;5065138;28;19943;-83
2023/11/30 03:59:19;;;;;;;;;;;;;;;1.42;100.00;100131.88;5064027;28;19916;-83
2023/11/30 04:01:44;;;;;;;;;;;;;;;1.39;100.00;100134.78;5064546;28;19921;-82
2023/11/30 04:04:09;;;;;;;;;;;;;;;1.41;100.00;100139.97;5064749;28;19924;-83
2023/11/30 04:06:35;;;;;;;;;;;;;;;1.41;100.00;100135.50;5065085;28;19917;-83
2023/11/30 04:09:00;;;;;;;;;;;;;;;1.41;100.00;100134.66;5064943;28;19943;-83
2023/11/30 04:11:25;;;;;;;;;;;;;;;1.40;100.00;100136.47;5064426;28;19947;-83
2023/11/30 04:13:50;;;;;;;;;;;;;;;1.40;100.00;100130.34;5046761;28;19931;-82
2023/11/30 04:16:16;;;;;;;;;;;;;;;1.38;100.00;100124.34;5064496;28;19960;-84
2023/11/30 04:18:42;;;;;;;;;;;;;;;1.37;100.00;100139.41;5063797;28;20337;-83
2023/11/30 04:21:07;;;;;;;;;;;;;;;1.35;100.00;100128.09;5063540;28;20278;-83
2023/11/30 04:23:32;;;;;;;;;;;;;;;1.30;100.00;100138.28;5045907;28;19921;-84
2023/11/30 04:25:57;;;;;;;;;;;;;;;1.25;100.00;100133.41;5064141;28;20361;-82
2023/11/30 04:28:22;;;;;;;;;;;;;;;1.22;100.00;100132.84;5063157;28;20287;-82
2023/11/30 04:30:48;;;;;;;;;;;;;;;1.23;100.00;100137.16;5063268;28;19916;-83
2023/11/30 04:33:13;;;;;;;;;;;;;;;1.20;100.00;100134.81;5062855;28;19924;-83
2023/11/30 04:35:38;;;;;;;;;;;;;;;1.18;100.00;100134.94;5063434;28;19912;-82
2023/11/30 04:38:03;;;;;;;;;;;;;;;1.16;100.00;100133.38;5063680;28;20030;-83
2023/11/30 04:40:29;;;;;;;;;;;;;;;1.08;100.00;100142.88;5060448;28;19916;-85
2023/11/30 04:42:54;;;;;;;;;;;;;;;1.07;100.00;100145.66;5057834;28;20004;-84
2023/11/30 04:45:19;;;;;;;;;;;;;;;1.05;100.00;100142.31;5063979;28;19912;-82
2023/11/30 04:47:44;;;;;;;;;;;;;;;1.14;100.00;100138.00;5063150;28;19966;-82
2023/11/30 04:50:10;;;;;;;;;;;;;;;1.19;100.00;100143.75;5063518;28;19917;-83
2023/11/30 04:52:35;;;;;;;;;;;;;;;1.17;100.00;100135.09;5064249;28;19923;-81
2023/11/30 04:55:00;;;;;;;;;;;;;;;1.25;100.00;100132.56;5063498;28;19995;-82
2023/11/30 04:57:25;;;;;;;;;;;;;;;1.30;100.00;100131.19;5063133;28;19913;-83
2023/11/30 04:59:51;;;;;;;;;;;;;;;1.32;100.00;100136.34;5063007;28;19920;-84
2023/11/30 05:02:16;;;;;;;;;;;;;;;1.36;100.00;100137.72;5063978;28;19912;-84
2023/11/30 05:04:41;;;;;;;;;;;;;;;1.39;100.00;100129.47;5045506;28;19933;-83
2023/11/30 05:07:07;;;;;;;;;;;;;;;1.42;100.00;100138.97;5063071;28;19967;-83
2023/11/30 05:09:32;;;;;;;;;;;;;;;1.39;100.00;100134.78;5062099;28;19917;-82
2023/11/30 05:11:58;;;;;;;;;;;;;;;1.39;100.00;100134.78;5063579;28;19917;-82
2023/11/30 05:14:23;;;;;;;;;;;;;;;1.35;100.00;100137.88;5064082;28;20444;-83
2023/11/30 05:16:48;;;;;;;;;;;;;;;1.35;100.00;100133.41;5068513;28;19905;-83
2023/11/30 05:19:13;;;;;;;;;;;;;;;1.36;100.00;100134.25;5077326;28;20039;-82
2023/11/30 05:21:39;;;;;;;;;;;;;;;1.35;100.00;100138.72;5071428;28;20318;-85
2023/11/30 05:24:04;;;;;;;;;;;;;;;1.42;100.00;100138.97;5062624;28;19970;-84
2023/11/30 05:26:29;;;;;;;;;;;;;;;1.45;100.00;100126.28;5062596;28;20320;-83
2023/11/30 05:28:54;;;;;;;;;;;;;;;1.40;100.00;100128.53;5062123;28;19920;-82
2023/11/30 05:31:20;;;;;;;;;;;;;;;1.31;100.00;100129.34;5028411;28;20353;-83
2023/11/30 05:33:45;;;;;;;;;;;;;;;1.21;100.00;100128.50;5061691;28;19916;-83
2023/11/30 05:36:10;;;;;;;;;;;;;;;1.25;100.00;100127.28;5061051;28;19916;-83
2023/11/30 05:38:35;;;;;;;;;;;;;;;1.31;100.00;100132.00;5044411;28;19980;-83
2023/11/30 05:41:01;;;;;;;;;;;;;;;1.37;100.00;100131.47;5061794;28;19967;-83
2023/11/30 05:43:26;;;;;;;;;;;;;;;1.39;100.00;100129.47;5062010;28;19923;-84
2023/11/30 05:45:51;;;;;;;;;;;;;;;1.34;100.00;100130.88;5063358;28;19912;-84
2023/11/30 05:48:17;;;;;;;;;;;;;;;1.31;100.00;100139.97;5061679;28;19923;-83
2023/11/30 05:50:42;;;;;;;;;;;;;;;1.30;100.00;100147.06;5053129;28;19945;-83
2023/11/30 05:53:07;;;;;;;;;;;;;;;1.31;100.00;100147.91;5062761;28;20024;-84
2023/11/30 05:55:32;;;;;;;;;;;;;;;1.29;100.00;100140.13;5062504;28;19991;-84
2023/11/30 05:57:57;;;;;;;;;;;;;;;1.30;100.00;100147.06;5062614;28;19935;-83
2023/11/30 06:00:23;;;;;;;;;;;;;;;1.31;100.00;100147.91;5062557;28;19912;-85
2023/11/30 06:02:48;;;;;;;;;;;;;;;1.34;100.00;100157.41;5063002;28;19913;-84
2023/11/30 06:05:13;;;;;;;;;;;;;;;1.33;100.00;100156.56;5067694;28;19912;-80
2023/11/30 06:07:39;;;;;;;;;;;;;;;1.27;100.00;100157.97;5073113;28;20387;-81
2023/11/30 06:10:05;;;;;;;;;;;;;;;1.24;100.00;100160.06;5070217;28;19962;-81
2023/11/30 06:12:30;;;;;;;;;;;;;;;1.24;100.00;100168.03;5069043;28;19959;-83
2023/11/30 06:14:55;;;;;;;;;;;;;;;1.24;100.00;100158.25;5062884;28;19913;-83
2023/11/30 06:17:20;;;;;;;;;;;;;;;1.25;100.00;100175.81;5062014;28;19928;-83
2023/11/30 06:19:46;;;;;;;;;;;;;;;1.24;100.00;100170.66;5062299;28;20334;-82
2023/11/30 06:22:12;;;;;;;;;;;;;;;1.29;100.00;100168.41;5048194;28;19912;-84
2023/11/30 06:24:38;;;;;;;;;;;;;;;1.38;100.00;100172.91;5067376;28;20000;-84
2023/11/30 06:27:03;;;;;;;;;;;;;;;1.43;100.00;100177.78;5048847;28;19913;-83
2023/11/30 06:29:31;;;;;;;;;;;;;;;1.40;100.00;100178.06;5066111;28;20366;-82
2023/11/30 06:31:57;;;;;;;;;;;;;;;1.40;100.00;100175.41;5047638;28;19923;-82
2023/11/30 06:34:23;;;;;;;;;;;;;;;1.44;100.00;100182.94;5064710;28;19917;-83
2023/11/30 06:36:48;;;;;;;;;;;;;;;1.44;100.00;100187.41;5048268;28;19919;-84
2023/11/30 06:39:13;;;;;;;;;;;;;;;1.43;100.00;100189.22;5065535;28;20264;-84
2023/11/30 06:41:38;;;;;;;;;;;;;;;1.41;100.00;100191.16;5065701;28;19952;-81
2023/11/30 06:44:04;;;;;;;;;;;;;;;1.43;100.00;100188.41;5065093;28;19936;-83
2023/11/30 06:46:29;;;;;;;;;;;;;;;1.42;100.00;100194.66;5047682;28;20298;-84
2023/11/30 06:48:54;;;;;;;;;;;;;;;1.36;100.00;100196.06;5065217;28;19912;-83
2023/11/30 06:51:20;;;;;;;;;;;;;;;1.37;100.00;100189.78;5064402;28;19913;-83
2023/11/30 06:53:45;;;;;;;;;;;;;;;1.38;100.00;100186.16;5066042;28;19959;-83
2023/11/30 06:56:11;;;;;;;;;;;;;;;1.42;100.00;100192.88;5047361;28;20216;-83
2023/11/30 06:58:37;;;;;;;;;;;;;;;1.48;100.00;100199.44;5047179;28;19913;-84
2023/11/30 07:01:05;;;;;;;;;;;;;;;1.41;100.00;100185.88;5072688;28;19924;-83
2023/11/30 07:03:31;;;;;;;;;;;;;;;1.42;100.00;100187.56;5070990;28;19917;-83
2023/11/30 07:05:56;;;;;;;;;;;;;;;1.48;100.00;100202.91;5066841;28;19919;-83
2023/11/30 07:08:21;;;;;;;;;;;;;;;1.52;100.00;100193.69;5066187;28;19938;-85
2023/11/30 07:10:46;;;;;;;;;;;;;;;1.59;100.00;100198.44;5069085;28;19917;-80
2023/11/30 07:13:12;;;;;;;;;;;;;;;1.60;100.00;100203.59;5073487;28;19989;-82
2023/11/30 07:15:37;;;;;;;;;;;;;;;1.64;100.00;100212.13;5072406;28;20362;-81
2023/11/30 07:18:02;;;;;;;;;;;;;;;1.65;100.00;100200.53;5071642;28;19924;-82
2023/11/30 07:20:27;;;;;;;;;;;;;;;1.67;100.00;100195.94;5076007;28;19916;-83
2023/11/30 07:22:53;;;;;;;;;;;;;;;1.68;100.00;100201.06;5075700;28;19927;-83
2023/11/30 07:25:18;;;;;;;;;;;;;;;1.66;100.00;100204.84;5076105;28;19901;-82
2023/11/30 07:27:43;;;;;;;;;;;;;;;1.67;100.00;100201.22;5069624;28;19912;-81
2023/11/30 07:30:09;;;;;;;;;;;;;;;1.70;100.00;100200.94;5065788;28;19935;-83
2023/11/30 07:32:34;;;;;;;;;;;;;;;1.66;100.00;100197.75;5065724;28;19999;-82
2023/11/30 07:34:59;;;;;;;;;;;;;;;1.63;100.00;100200.66;5067655;28;19920;-83
2023/11/30 07:37:24;;;;;;;;;;;;;;;1.68;100.00;100202.91;5049952;28;19917;-83
2023/11/30 07:39:50;;;;;;;;;;;;;;;1.75;100.00;100209.31;5076335;28;19916;-82
2023/11/30 07:42:16;;;;;;;;;;;;;;;1.72;100.00;100202.47;5077027;28;19904;-82
2023/11/30 07:44:42;;;;;;;;;;;;;;;1.64;100.00;100199.69;5076789;28;19968;-80
2023/11/30 07:47:07;;;;;;;;;;;;;;;1.61;100.00;100196.50;5074002;28;19943;-83
2023/11/30 07:49:32;;;;;;;;;;;;;;;1.49;100.00;100196.63;5065674;28;20477;-81
2023/11/30 07:51:57;;;;;;;;;;;;;;;1.52;100.00;100198.97;5067988;28;19916;-82
2023/11/30 07:54:23;;;;;;;;;;;;;;;1.43;100.00;100196.34;5047771;28;19920;-83
2023/11/30 07:56:48;;;;;;;;;;;;;;;1.35;100.00;100186.44;5045984;28;19913;-83
2023/11/30 07:59:13;;;;;;;;;;;;;;;1.30;100.00;100199.25;5064646;28;19916;-84
2023/11/30 08:01:39;;;;;;;;;;;;;;;1.28;100.00;100201.22;5064314;28;19913;-83
2023/11/30 08:04:04;;;;;;;;;;;;;;;1.23;100.00;100190.19;5065394;28;19912;-84
2023/11/30 08:06:30;;;;;;;;;;;;;;;1.19;100.00;100197.59;5065696;28;20385;-83
2023/11/30 08:08:55;;;;;;;;;;;;;;;1.19;100.00;100196.75;5076131;28;19919;-83
2023/11/30 08:11:20;;;;;;;;;;;;;;;1.25;100.00;100186.41;5077018;28;19905;-81
2023/11/30 08:13:45;;;;;;;;;;;;;;;1.33;100.00;100193.69;5076122;28;20073;-82
2023/11/30 08:16:11;;;;;;;;;;;;;;;1.38;100.00;100194.09;5072558;28;19912;-82
2023/11/30 08:18:36;;;;;;;;;;;;;;;1.41;100.00;100188.53;5071435;28;19917;-84
2023/11/30 08:21:02;;;;;;;;;;;;;;;1.50;100.00;100189.50;5057101;28;19916;-80
2023/11/30 08:23:27;;;;;;;;;;;;;;;1.56;100.00;100188.13;5075842;28;19912;-83
2023/11/30 08:25:53;;;;;;;;;;;;;;;1.56;100.00;100188.13;5060204;28;20009;-80
2023/11/30 08:28:18;;;;;;;;;;;;;;;1.49;100.00;100177.22;5072767;28;19921;-83
2023/11/30 08:30:44;;;;;;;;;;;;;;;1.43;100.00;100183.94;5072598;28;19917;-82
2023/11/30 08:33:09;;;;;;;;;;;;;;;1.44;100.00;100176.81;5075452;28;19939;-82
2023/11/30 08:35:34;;;;;;;;;;;;;;;1.55;100.00;100187.25;5077186;28;19992;-82
2023/11/30 08:37:59;;;;;;;;;;;;;;;1.60;100.00;100181.53;5076682;28;19908;-80
2023/11/30 08:40:25;;;;;;;;;;;;;;;1.62;100.00;100182.25;5059382;28;19904;-81
2023/11/30 08:42:50;;;;;;;;;;;;;;;1.54;100.00;100178.47;5066306;28;19912;-82
2023/11/30 08:45:15;;;;;;;;;;;;;;;1.42;100.00;100181.41;5061168;28;19920;-83
2023/11/30 08:47:43;;;;;;;;;;;;;;;1.35;100.00;100185.59;5051144;28;19913;-81
2023/11/30 08:50:08;;;;;;;;;;;;;;;1.35;100.00;100180.31;5056015;28;20299;-81
2023/11/30 08:52:33;;;;;;;;;;;;;;;1.35;100.00;100175.84;5056274;28;19924;-81
2023/11/30 08:54:58;;;;;;;;;;;;;;;1.40;100.00;100178.06;5049813;28;19923;-83
2023/11/30 08:57:24;;;;;;;;;;;;;;;1.53;100.00;100179.47;5043209;28;19913;-83
2023/11/30 08:59:49;;;;;;;;;;;;;;;1.49;100.00;100177.22;5042586;28;19943;-83
2023/11/30 09:02:15;;;;;;;;;;;;;;;1.53;100.00;100182.13;5071893;28;19939;-82
2023/11/30 09:04:40;;;;;;;;;;;;;;;1.66;100.00;100189.78;5044219;28;19913;-83
2023/11/30 09:07:13;;;;;;;;;;;;;;;1.66;100.00;100194.22;5112546;27;19920;-39
2023/11/30 09:09:38;;;;;;;;;;;;;;;1.72;100.00;100191.03;5112980;28;20279;-39
2023/11/30 09:12:04;;;;;;;;;;;;;;;1.77;100.00;100186.16;5112154;28;19916;-37
2023/11/30 09:14:30;;;;;;;;;;;;;;;1.78;100.00;100187.81;5114256;28;20296;-39
2023/11/30 09:16:55;;;;;;;;;;;;;;;1.79;100.00;100193.94;5112633;28;20437;-40
2023/11/30 09:19:20;;;;;;;;;;;;;;;1.94;100.00;100198.69;5112152;28;19916;-39
2023/11/30 09:21:46;;;;;;;;;;;;;;;1.95;100.00;100205.69;5112108;28;19923;-38
2023/11/30 09:24:11;;;;;;;;;;;;;;;2.11;100.00;100212.22;5111424;28;19917;-38
2023/11/30 09:26:36;;;;;;;;;;;;;;;2.14;100.00;100210.13;5111418;28;19943;-38
2023/11/30 09:29:02;;;;;;;;;;;;;;;2.16;100.00;100217.94;5110912;28;19920;-39
2023/11/30 09:31:28;;;;;;;;;;;;;;;2.13;100.00;100207.59;5112001;28;19916;-38
2023/11/30 09:33:53;;;;;;;;;;;;;;;2.15;100.00;100210.94;5111984;28;19939;-39
2023/11/30 09:36:18;;;;;;;;;;;;;;;2.24;100.00;100209.22;5112645;28;19916;-39
2023/11/30 09:38:44;;;;;;;;;;;;;;;2.31;100.00;100211.16;5112170;28;19916;-39
2023/11/30 09:41:11;;;;;;;;;;;;;;;2.38;100.00;100212.28;5112068;28;20351;-40
2023/11/30 09:43:37;;;;;;;;;;;;;;;2.39;100.00;100211.28;5112443;28;19916;-41
2023/11/30 09:46:02;;;;;;;;;;;;;;;2.44;100.00;100210.03;5115458;28;19923;-38
2023/11/30 09:48:27;;;;;;;;;;;;;;;2.44;100.00;100200.22;5118805;28;19916;-39
2023/11/30 09:50:52;;;;;;;;;;;;;;;2.49;100.00;100191.84;5117421;28;19938;-38
2023/11/30 09:53:18;;;;;;;;;;;;;;;2.53;100.00;100198.56;5117152;28;19916;-40
2023/11/30 09:55:43;;;;;;;;;;;;;;;2.62;100.00;100202.97;5119628;28;20007;-39
2023/11/30 09:58:08;;;;;;;;;;;;;;;2.62;100.00;100197.66;5115441;28;20004;-39
2023/11/30 10:00:34;;;;;;;;;;;;;;;2.64;100.00;100201.00;5126094;28;19951;-41
2023/11/30 10:02:59;;;;;;;;;;;;;;;2.61;100.00;100206.63;5116735;28;19924;-40
2023/11/30 10:05:26;;;;;;;;;;;;;;;2.77;100.00;100212.13;5107449;28;19967;-39
2023/11/30 10:07:51;;;;;;;;;;;;;;;2.77;100.00;100196.19;5110548;28;19920;-40
2023/11/30 10:10:17;;;;;;;;;;;;;;;2.84;100.00;100205.25;5111934;28;20014;-39
2023/11/30 10:12:42;;;;;;;;;;;;;;;2.88;100.00;100196.97;5109701;28;20362;-40
2023/11/30 10:15:09;;;;;;;;;;;;;;;3.11;100.00;100195.59;5111060;28;20340;-39
2023/11/30 10:17:34;;;;;;;;;;;;;;;3.34;100.00;100198.63;5103153;28;19927;-40
2023/11/30 10:20:00;;;;;;;;;;;;;;;3.47;100.00;100203.59;5101275;28;19920;-39
2023/11/30 10:22:25;;;;;;;;;;;;;;;3.45;100.00;100195.78;5109228;28;20025;-40
2023/11/30 10:24:51;;;;;;;;;;;;;;;3.36;100.00;100195.84;5112498;28;19920;-39
2023/11/30 10:27:18;;;;;;;;;;;;;;;3.27;100.00;100185.13;5102945;28;19919;-40
2023/11/30 10:29:44;;;;;;;;;;;;;;;3.19;100.00;100182.38;5096828;28;19959;-40
2023/11/30 10:32:09;;;;;;;;;;;;;;;3.37;100.00;100186.84;5106585;28;20033;-39
2023/11/30 10:34:39;;;;;;;;;;;;;;;3.41;100.00;100180.25;5102688;28;20405;-39
2023/11/30 10:37:04;;;;;;;;;;;;;;;3.36;100.00;100174.56;5102003;28;20328;-37
2023/11/30 10:39:32;;;;;;;;;;;;;;;3.34;100.00;100181.84;5100044;28;19920;-39
2023/11/30 10:41:58;;;;;;;;;;;;;;;3.42;100.00;100176.59;5104930;28;20010;-39
2023/11/30 10:44:27;;;;;;;;;;;;;;;3.89;100.00;100177.16;5099338;28;19928;-39
2023/11/30 10:46:53;;;;;;;;;;;;;;;4.30;100.00;100176.63;5100088;28;19934;-39
2023/11/30 10:49:19;;;;;;;;;;;;;;;4.70;100.00;100170.66;5097740;28;19924;-40
2023/11/30 10:51:44;;;;;;;;;;;;;;;4.98;100.00;100173.91;5097456;28;19977;-40
2023/11/30 10:54:35;;;;;;;;;;;;;;;4.99;100.00;100170.25;5097985;28;19981;-39
2023/11/30 10:57:01;;;;;;;;;;;;;;;4.84;100.00;100166.53;5079967;28;19916;-39
2023/11/30 10:59:30;;;;;;;;;;;;;;;4.91;100.00;100159.56;5094098;28;19938;-39
2023/11/30 11:01:56;;;;;;;;;;;;;;;5.36;100.00;100165.50;5095465;28;19949;-39
2023/11/30 11:04:25;;;;;;;;;;;;;;;5.50;100.00;100171.03;5094025;28;19939;-39
2023/11/30 11:06:50;;;;;;;;;;;;;;;5.91;100.00;100170.19;5076179;28;19920;-40
2023/11/30 11:09:15;;;;;;;;;;;;;;;6.03;100.00;100157.34;5093269;28;19982;-39
2023/11/30 11:11:43;;;;;;;;;;;;;;;6.74;100.00;100161.84;5094918;28;19923;-40
2023/11/30 11:14:08;;;;;;;;;;;;;;;7.08;100.00;100157.97;5095042;28;19925;-39
2023/11/30 11:16:36;;;;;;;;;;;;;;;6.89;100.00;100147.72;5092694;28;20023;-41
2023/11/30 11:19:03;;;;;;;;;;;;;;;6.87;100.00;100144.38;5094443;28;20400;-39
2023/11/30 11:21:32;;;;;;;;;;;;;;;6.23;100.00;100142.59;5094382;28;20362;-39
2023/11/30 11:24:04;;;;;;;;;;;;;;;6.29;100.00;100147.28;5094641;28;19954;-39
2023/11/30 11:26:42;;;;;;;;;;;;;;;6.27;100.00;100143.94;5094402;28;20469;-39
2023/11/30 11:29:08;;;;;;;;;;;;;;;6.91;100.00;100145.69;5093235;28;20011;-39
2023/11/30 11:31:33;;;;;;;;;;;;;;;7.31;100.00;100138.44;5094259;28;20081;-39
2023/11/30 11:33:58;;;;;;;;;;;;;;;7.96;100.00;100137.06;5094767;28;20429;-39
2023/11/30 11:36:25;;;;;;;;;;;;;;;8.42;100.00;100135.09;5096011;28;19927;-38
2023/11/30 11:38:51;;;;;;;;;;;;;;;8.32;100.00;100134.50;5097159;28;19920;-39
2023/11/30 11:41:17;;;;;;;;;;;;;;;8.11;100.00;100122.69;5097664;28;20275;-39
2023/11/30 11:43:43;;;;;;;;;;;;;;;8.20;100.00;100127.94;5100808;28;20007;-39
2023/11/30 11:46:08;;;;;;;;;;;;;;;8.99;100.00;100130.88;5102064;28;19917;-39
2023/11/30 11:48:33;;;;;;;;;;;;;;;8.00;100.00;100127.63;5097675;28;20020;-39
2023/11/30 11:50:58;;;;;;;;;;;;;;;7.55;100.00;100127.53;5098162;28;19959;-40
2023/11/30 11:53:24;;;;;;;;;;;;;;;7.40;100.00;100124.00;5095689;28;19924;-39
2023/11/30 11:55:49;;;;;;;;;;;;;;;7.45;100.00;100126.94;5092876;28;20025;-40
2023/11/30 11:58:14;;;;;;;;;;;;;;;7.53;100.00;100123.38;5093782;28;19951;-40
2023/11/30 12:00:39;;;;;;;;;;;;;;;7.62;100.00;100123.13;5093604;28;19923;-39
2023/11/30 12:03:05;;;;;;;;;;;;;;;7.52;100.00;100127.91;5093562;28;19916;-39
2023/11/30 12:05:30;;;;;;;;;;;;;;;7.38;100.00;100118.81;5093629;28;20305;-39
2023/11/30 12:07:56;;;;;;;;;;;;;;;6.82;100.00;100118.19;5093576;28;20326;-38
2023/11/30 12:10:24;;;;;;;;;;;;;;;6.25;100.00;100111.22;5094086;28;19939;-39
2023/11/30 12:12:50;;;;;;;;;;;;;;;6.28;100.00;100112.72;5093223;28;19965;-39
2023/11/30 12:15:15;;;;;;;;;;;;;;;6.06;100.00;100111.63;5093288;28;19916;-38
2023/11/30 12:17:40;;;;;;;;;;;;;;;6.24;100.00;100108.69;5093475;28;19955;-40
2023/11/30 12:20:06;;;;;;;;;;;;;;;6.49;100.00;100107.63;5093220;28;19923;-39
2023/11/30 12:22:31;;;;;;;;;;;;;;;6.57;100.00;100106.75;5092054;28;19939;-39
2023/11/30 12:24:56;;;;;;;;;;;;;;;6.56;100.00;100108.59;5093208;28;20346;-39
2023/11/30 12:27:22;;;;;;;;;;;;;;;6.38;100.00;100103.47;5093143;28;20345;-39